createdAt,value
2017-03-07T00:00:13.452Z,7.81
2017-03-07T00:00:53.863Z,7.77
2017-03-07T00:01:34.289Z,7.77
2017-03-07T00:02:14.721Z,7.79
2017-03-07T00:02:55.188Z,7.77
2017-03-07T00:03:35.604Z,7.77
2017-03-07T00:04:16.074Z,7.67
2017-03-07T00:04:56.494Z,7.69
2017-03-07T00:05:36.968Z,7.74
2017-03-07T00:06:17.399Z,7.74
2017-03-07T00:06:57.830Z,7.67
2017-03-07T00:07:38.257Z,7.66
2017-03-07T00:08:18.708Z,7.71
2017-03-07T00:08:59.120Z,7.71
2017-03-07T00:09:39.539Z,7.71
2017-03-07T00:10:19.926Z,7.63
2017-03-07T00:11:00.358Z,7.71
2017-03-07T00:11:40.763Z,7.63
2017-03-07T00:12:21.230Z,7.58
2017-03-07T00:13:01.683Z,7.62
2017-03-07T00:13:42.047Z,7.63
2017-03-07T00:14:22.495Z,7.58
2017-03-07T00:15:02.929Z,7.71
2017-03-07T00:15:43.315Z,7.67
2017-03-07T00:16:23.751Z,7.69
2017-03-07T00:17:04.110Z,7.63
2017-03-07T00:17:44.525Z,7.63
2017-03-07T00:18:24.944Z,7.62
2017-03-07T00:19:05.340Z,7.62
2017-03-07T00:19:45.745Z,7.62
2017-03-07T00:20:26.155Z,7.59
2017-03-07T00:21:06.554Z,7.63
2017-03-07T00:21:46.974Z,7.67
2017-03-07T00:22:27.361Z,7.69
2017-03-07T00:23:07.765Z,7.62
2017-03-07T00:23:48.193Z,7.62
2017-03-07T00:24:28.553Z,7.69
2017-03-07T00:25:08.973Z,7.62
2017-03-07T00:25:49.370Z,7.66
2017-03-07T00:26:29.787Z,7.58
2017-03-07T00:27:10.175Z,7.59
2017-03-07T00:27:50.639Z,7.63
2017-03-07T00:28:31.060Z,7.66
2017-03-07T00:29:11.475Z,7.62
2017-03-07T00:29:51.873Z,7.58
2017-03-07T00:30:32.275Z,7.56
2017-03-07T00:31:12.692Z,7.66
2017-03-07T00:31:53.101Z,7.62
2017-03-07T00:32:33.493Z,7.63
2017-03-07T00:33:13.907Z,7.62
2017-03-07T00:33:54.317Z,7.59
2017-03-07T00:34:34.729Z,7.59
2017-03-07T00:35:15.169Z,7.58
2017-03-07T00:35:55.580Z,7.69
2017-03-07T00:36:35.976Z,7.55
2017-03-07T00:37:16.395Z,7.62
2017-03-07T00:37:56.800Z,7.62
2017-03-07T00:38:37.221Z,7.6
2017-03-07T00:39:17.618Z,7.66
2017-03-07T00:39:58.037Z,7.62
2017-03-07T00:40:38.443Z,7.62
2017-03-07T00:41:18.863Z,7.53
2017-03-07T00:41:59.259Z,7.6
2017-03-07T00:42:39.663Z,7.62
2017-03-07T00:43:20.049Z,7.67
2017-03-07T00:44:00.479Z,7.6
2017-03-07T00:44:40.863Z,7.62
2017-03-07T00:45:21.282Z,7.63
2017-03-07T00:46:01.668Z,7.66
2017-03-07T00:46:42.061Z,7.63
2017-03-07T00:48:39.798Z,7.63
2017-03-07T00:49:20.221Z,7.59
2017-03-07T00:50:00.631Z,7.6
2017-03-07T00:50:41.057Z,7.66
2017-03-07T00:51:21.491Z,7.58
2017-03-07T00:52:01.927Z,7.62
2017-03-07T00:52:42.340Z,7.59
2017-03-07T00:53:22.769Z,7.5
2017-03-07T00:54:03.177Z,7.44
2017-03-07T00:54:43.616Z,7.44
2017-03-07T00:55:24.071Z,7.45
2017-03-07T00:56:04.498Z,7.42
2017-03-07T00:56:44.912Z,7.52
2017-03-07T00:57:25.353Z,7.47
2017-03-07T00:58:05.810Z,7.45
2017-03-07T00:58:46.232Z,7.49
2017-03-07T00:59:26.684Z,7.5
2017-03-07T01:00:07.052Z,7.47
2017-03-07T01:00:47.443Z,7.44
2017-03-07T01:01:27.860Z,7.34
2017-03-07T01:02:08.271Z,7.44
2017-03-07T01:04:20.909Z,7.41
2017-03-07T01:05:01.414Z,7.37
2017-03-07T01:05:41.832Z,7.38
2017-03-07T01:06:22.305Z,7.41
2017-03-07T01:07:02.767Z,7.37
2017-03-07T01:07:43.212Z,7.4
2017-03-07T01:08:23.658Z,7.42
2017-03-07T01:09:04.098Z,7.38
2017-03-07T01:09:44.548Z,7.34
2017-03-07T01:10:24.975Z,7.35
2017-03-07T01:11:05.389Z,7.27
2017-03-07T01:11:45.830Z,7.35
2017-03-07T01:12:26.269Z,7.31
2017-03-07T01:13:06.709Z,7.26
2017-03-07T01:13:47.160Z,7.26
2017-03-07T01:14:27.607Z,7.34
2017-03-07T01:15:08.019Z,7.34
2017-03-07T01:15:48.443Z,7.27
2017-03-07T01:16:28.819Z,7.29
2017-03-07T01:17:09.247Z,7.32
2017-03-07T01:17:49.655Z,7.31
2017-03-07T01:18:30.099Z,7.27
2017-03-07T01:19:10.543Z,7.31
2017-03-07T01:19:50.944Z,7.31
2017-03-07T01:20:31.360Z,7.29
2017-03-07T01:21:11.784Z,7.32
2017-03-07T01:21:52.178Z,7.31
2017-03-07T01:22:32.616Z,7.27
2017-03-07T01:23:13.051Z,7.31
2017-03-07T01:23:53.435Z,7.31
2017-03-07T01:24:33.841Z,7.32
2017-03-07T01:25:14.230Z,7.31
2017-03-07T01:25:54.624Z,7.34
2017-03-07T01:26:35.055Z,7.35
2017-03-07T01:27:15.430Z,7.34
2017-03-07T01:27:55.848Z,7.31
2017-03-07T01:28:36.262Z,7.31
2017-03-07T01:29:16.650Z,7.34
2017-03-07T01:29:57.051Z,7.32
2017-03-07T01:30:37.492Z,7.27
2017-03-07T01:31:17.853Z,7.32
2017-03-07T01:31:58.460Z,7.34
2017-03-07T01:32:38.895Z,7.34
2017-03-07T01:33:19.306Z,7.29
2017-03-07T01:33:59.716Z,7.37
2017-03-07T01:34:40.108Z,7.27
2017-03-07T01:36:27.500Z,7.23
2017-03-07T01:37:07.936Z,7.29
2017-03-07T01:37:48.370Z,7.23
2017-03-07T01:38:28.818Z,7.31
2017-03-07T01:39:09.252Z,7.27
2017-03-07T01:39:49.681Z,7.27
2017-03-07T01:40:30.147Z,7.32
2017-03-07T01:41:10.562Z,7.22
2017-03-07T01:41:50.987Z,7.22
2017-03-07T01:42:31.423Z,7.23
2017-03-07T01:43:11.889Z,7.2
2017-03-07T01:43:52.299Z,7.19
2017-03-07T01:44:32.704Z,7.24
2017-03-07T01:46:10.062Z,7.31
2017-03-07T01:46:50.467Z,7.19
2017-03-07T01:47:30.909Z,7.16
2017-03-07T01:48:11.328Z,7.16
2017-03-07T01:48:51.770Z,7.23
2017-03-07T01:49:32.173Z,7.22
2017-03-07T01:50:12.549Z,7.17
2017-03-07T01:52:10.128Z,7.15
2017-03-07T01:52:50.564Z,7.17
2017-03-07T01:53:30.981Z,7.22
2017-03-07T01:54:11.416Z,7.2
2017-03-07T01:54:51.835Z,7.22
2017-03-07T01:55:32.265Z,7.22
2017-03-07T01:56:12.725Z,7.23
2017-03-07T01:56:53.138Z,7.15
2017-03-07T01:57:33.574Z,7.09
2017-03-07T01:58:13.991Z,7.12
2017-03-07T01:58:54.427Z,7.16
2017-03-07T01:59:34.836Z,7.07
2017-03-07T02:00:15.198Z,7.13
2017-03-07T02:00:55.607Z,7.08
2017-03-07T02:01:36.019Z,7.07
2017-03-07T02:02:16.475Z,7.13
2017-03-07T02:02:56.886Z,7.13
2017-03-07T02:03:37.296Z,7.09
2017-03-07T02:04:17.665Z,7.08
2017-03-07T02:04:58.043Z,7.02
2017-03-07T02:05:38.434Z,7.02
2017-03-07T02:06:18.832Z,7.13
2017-03-07T02:06:59.279Z,7.01
2017-03-07T02:07:39.683Z,7.08
2017-03-07T02:09:17.008Z,7.05
2017-03-07T02:09:57.481Z,7.09
2017-03-07T02:10:37.872Z,7.04
2017-03-07T02:11:18.372Z,7.02
2017-03-07T02:12:55.707Z,7.04
2017-03-07T02:13:36.136Z,7.02
2017-03-07T02:14:16.537Z,7.02
2017-03-07T02:14:56.982Z,6.98
2017-03-07T02:15:37.382Z,7.02
2017-03-07T02:16:17.750Z,6.98
2017-03-07T02:16:58.152Z,6.98
2017-03-07T02:17:38.525Z,7.02
2017-03-07T02:18:18.917Z,7.01
2017-03-07T02:18:59.353Z,6.99
2017-03-07T02:19:39.751Z,6.89
2017-03-07T02:20:20.151Z,6.9
2017-03-07T02:21:00.539Z,6.89
2017-03-07T02:21:40.966Z,6.86
2017-03-07T02:22:21.365Z,6.86
2017-03-07T02:23:01.780Z,6.91
2017-03-07T02:23:42.208Z,6.9
2017-03-07T02:24:22.636Z,6.79
2017-03-07T02:25:03.047Z,6.8
2017-03-07T02:25:43.445Z,6.73
2017-03-07T02:26:24.044Z,6.8
2017-03-07T02:27:04.430Z,6.91
2017-03-07T02:27:44.859Z,6.76
2017-03-07T02:28:25.272Z,6.81
2017-03-07T02:30:22.861Z,6.81
2017-03-07T02:31:03.300Z,6.77
2017-03-07T02:31:43.752Z,6.83
2017-03-07T02:32:24.205Z,6.79
2017-03-07T02:33:04.646Z,6.76
2017-03-07T02:33:45.093Z,6.79
2017-03-07T02:34:25.523Z,6.79
2017-03-07T02:35:05.952Z,6.76
2017-03-07T02:35:46.370Z,6.8
2017-03-07T02:36:26.794Z,6.77
2017-03-07T02:37:07.241Z,6.81
2017-03-07T02:37:47.649Z,6.81
2017-03-07T02:38:28.064Z,6.87
2017-03-07T02:39:08.525Z,6.8
2017-03-07T02:39:48.938Z,6.77
2017-03-07T02:40:29.368Z,6.79
2017-03-07T02:41:09.780Z,6.8
2017-03-07T02:41:50.190Z,6.83
2017-03-07T02:42:30.598Z,6.79
2017-03-07T02:43:11.013Z,6.79
2017-03-07T02:43:51.457Z,6.79
2017-03-07T02:44:31.826Z,6.89
2017-03-07T02:45:12.272Z,6.89
2017-03-07T02:45:52.659Z,6.9
2017-03-07T02:46:33.076Z,6.95
2017-03-07T02:47:13.456Z,6.86
2017-03-07T02:47:53.899Z,6.89
2017-03-07T02:48:34.314Z,6.86
2017-03-07T02:49:14.705Z,6.79
2017-03-07T02:49:55.105Z,6.9
2017-03-07T02:50:35.493Z,6.84
2017-03-07T02:51:15.888Z,6.84
2017-03-07T02:51:56.275Z,6.98
2017-03-07T02:52:36.709Z,6.87
2017-03-07T02:53:17.130Z,6.95
2017-03-07T02:53:57.580Z,6.91
2017-03-07T02:54:37.975Z,6.84
2017-03-07T02:55:18.395Z,6.86
2017-03-07T02:55:58.802Z,6.89
2017-03-07T02:56:39.193Z,6.87
2017-03-07T02:57:19.605Z,6.98
2017-03-07T02:58:00.008Z,6.89
2017-03-07T02:58:40.474Z,6.91
2017-03-07T02:59:20.871Z,6.91
2017-03-07T03:00:01.251Z,6.94
2017-03-07T03:00:41.635Z,6.81
2017-03-07T03:01:22.046Z,6.9
2017-03-07T03:02:02.413Z,6.8
2017-03-07T03:02:42.805Z,6.76
2017-03-07T03:03:23.207Z,6.86
2017-03-07T03:04:03.602Z,6.95
2017-03-07T03:04:44.017Z,6.86
2017-03-07T03:05:24.433Z,6.91
2017-03-07T03:06:04.839Z,6.87
2017-03-07T03:06:45.242Z,6.91
2017-03-07T03:07:25.628Z,6.86
2017-03-07T03:08:06.041Z,6.89
2017-03-07T03:08:46.466Z,6.86
2017-03-07T03:09:26.873Z,6.89
2017-03-07T03:10:07.291Z,6.86
2017-03-07T03:10:47.688Z,6.86
2017-03-07T03:11:28.103Z,6.84
2017-03-07T03:12:08.512Z,6.89
2017-03-07T03:12:49.743Z,6.9
2017-03-07T03:13:30.160Z,6.9
2017-03-07T03:14:10.572Z,6.87
2017-03-07T03:14:51.053Z,6.86
2017-03-07T03:15:31.451Z,6.87
2017-03-07T03:16:11.863Z,6.89
2017-03-07T03:16:52.258Z,6.86
2017-03-07T03:17:32.679Z,6.87
2017-03-07T03:18:13.101Z,6.95
2017-03-07T03:19:50.424Z,6.94
2017-03-07T03:20:30.923Z,6.9
2017-03-07T03:21:11.307Z,6.91
2017-03-07T03:21:51.755Z,6.87
2017-03-07T03:22:32.187Z,6.89
2017-03-07T03:23:12.642Z,7.01
2017-03-07T03:23:53.053Z,7.01
2017-03-07T03:24:33.505Z,6.99
2017-03-07T03:25:13.891Z,7.02
2017-03-07T03:25:54.317Z,7.02
2017-03-07T03:26:34.671Z,7.01
2017-03-07T03:27:15.090Z,6.98
2017-03-07T03:27:55.486Z,6.99
2017-03-07T03:28:35.988Z,6.97
2017-03-07T03:29:16.391Z,7.04
2017-03-07T03:29:56.798Z,6.99
2017-03-07T03:30:37.211Z,6.98
2017-03-07T03:31:17.612Z,6.98
2017-03-07T03:31:58.071Z,6.98
2017-03-07T03:32:38.479Z,7.02
2017-03-07T03:33:18.850Z,6.98
2017-03-07T03:33:59.256Z,6.95
2017-03-07T03:34:39.655Z,7.05
2017-03-07T03:35:20.233Z,7.05
2017-03-07T03:36:00.660Z,6.98
2017-03-07T03:36:41.063Z,6.99
2017-03-07T03:37:21.457Z,7.01
2017-03-07T03:38:01.851Z,7.01
2017-03-07T03:38:42.249Z,6.99
2017-03-07T03:39:22.669Z,7.09
2017-03-07T03:40:03.061Z,7.01
2017-03-07T03:40:43.472Z,7.13
2017-03-07T03:41:23.872Z,7.08
2017-03-07T03:42:04.270Z,7.02
2017-03-07T03:42:44.642Z,7.04
2017-03-07T03:43:25.008Z,7.08
2017-03-07T03:44:05.420Z,7.08
2017-03-07T03:44:45.825Z,7.02
2017-03-07T03:45:26.238Z,6.98
2017-03-07T03:46:06.675Z,7.09
2017-03-07T03:46:47.085Z,7.02
2017-03-07T03:47:27.475Z,7.13
2017-03-07T03:48:07.892Z,6.99
2017-03-07T03:48:48.317Z,6.87
2017-03-07T03:49:28.716Z,6.89
2017-03-07T03:50:09.081Z,6.91
2017-03-07T03:50:49.485Z,6.89
2017-03-07T03:51:29.880Z,6.89
2017-03-07T03:52:10.281Z,6.99
2017-03-07T03:52:50.686Z,6.89
2017-03-07T03:53:31.818Z,6.91
2017-03-07T03:54:12.219Z,6.89
2017-03-07T03:54:52.654Z,6.97
2017-03-07T03:55:33.039Z,6.86
2017-03-07T03:56:13.437Z,6.84
2017-03-07T03:56:53.853Z,6.95
2017-03-07T03:57:34.251Z,6.9
2017-03-07T03:58:14.662Z,6.95
2017-03-07T03:58:55.123Z,6.94
2017-03-07T03:59:35.488Z,6.98
2017-03-07T04:00:15.925Z,6.98
2017-03-07T04:00:56.321Z,6.95
2017-03-07T04:01:36.716Z,6.89
2017-03-07T04:02:17.122Z,6.91
2017-03-07T04:02:57.509Z,6.83
2017-03-07T04:03:37.959Z,6.87
2017-03-07T04:04:18.316Z,6.91
2017-03-07T04:04:58.666Z,6.95
2017-03-07T04:06:35.996Z,6.89
2017-03-07T04:07:16.440Z,6.9
2017-03-07T04:07:56.870Z,6.91
2017-03-07T04:08:37.296Z,7.01
2017-03-07T04:09:17.717Z,6.98
2017-03-07T04:09:58.135Z,6.94
2017-03-07T04:10:38.574Z,6.95
2017-03-07T04:11:19.025Z,6.9
2017-03-07T04:11:59.454Z,6.91
2017-03-07T04:12:39.851Z,6.9
2017-03-07T04:13:20.233Z,6.9
2017-03-07T04:14:00.635Z,6.97
2017-03-07T04:14:41.063Z,6.87
2017-03-07T04:15:21.480Z,6.9
2017-03-07T04:16:01.889Z,6.95
2017-03-07T04:16:42.308Z,6.89
2017-03-07T04:17:22.697Z,6.89
2017-03-07T04:18:03.049Z,6.94
2017-03-07T04:18:43.464Z,6.91
2017-03-07T04:19:23.841Z,6.89
2017-03-07T04:20:04.224Z,6.9
2017-03-07T04:20:44.638Z,6.89
2017-03-07T04:21:25.102Z,6.9
2017-03-07T04:22:05.503Z,6.97
2017-03-07T04:22:45.926Z,6.86
2017-03-07T04:23:26.325Z,6.89
2017-03-07T04:24:06.720Z,6.89
2017-03-07T04:24:47.128Z,6.89
2017-03-07T04:25:27.546Z,6.87
2017-03-07T04:26:07.947Z,6.86
2017-03-07T04:26:48.376Z,6.9
2017-03-07T04:27:28.809Z,6.91
2017-03-07T04:28:09.202Z,6.87
2017-03-07T04:28:49.616Z,6.9
2017-03-07T04:29:30.024Z,6.89
2017-03-07T04:30:10.447Z,6.91
2017-03-07T04:32:23.095Z,6.95
2017-03-07T04:33:03.509Z,6.86
2017-03-07T04:33:43.949Z,6.9
2017-03-07T04:34:24.400Z,6.98
2017-03-07T04:35:04.838Z,6.98
2017-03-07T04:35:45.283Z,7.04
2017-03-07T04:36:25.712Z,7.04
2017-03-07T04:37:06.143Z,6.91
2017-03-07T04:37:46.566Z,6.89
2017-03-07T04:38:26.984Z,6.89
2017-03-07T04:39:07.410Z,6.99
2017-03-07T04:39:47.797Z,6.91
2017-03-07T04:40:28.209Z,6.91
2017-03-07T04:41:08.699Z,6.91
2017-03-07T04:41:49.079Z,6.91
2017-03-07T04:42:29.482Z,6.94
2017-03-07T04:43:09.895Z,6.89
2017-03-07T04:43:50.314Z,6.9
2017-03-07T04:44:30.802Z,6.89
2017-03-07T04:45:11.214Z,6.95
2017-03-07T04:45:51.651Z,6.77
2017-03-07T04:46:32.082Z,6.9
2017-03-07T04:47:12.498Z,6.94
2017-03-07T04:47:52.874Z,6.86
2017-03-07T04:48:33.305Z,6.91
2017-03-07T04:49:13.774Z,6.84
2017-03-07T04:49:54.168Z,6.91
2017-03-07T04:50:34.725Z,6.87
2017-03-07T04:51:15.096Z,6.83
2017-03-07T04:51:55.496Z,6.79
2017-03-07T04:52:35.897Z,6.79
2017-03-07T04:53:16.314Z,6.87
2017-03-07T04:53:56.747Z,6.91
2017-03-07T04:55:34.066Z,6.8
2017-03-07T04:56:14.495Z,6.72
2017-03-07T04:56:55.049Z,6.73
2017-03-07T04:57:35.486Z,6.8
2017-03-07T04:58:15.876Z,6.73
2017-03-07T04:58:56.298Z,6.77
2017-03-07T04:59:36.765Z,6.71
2017-03-07T05:00:17.131Z,6.69
2017-03-07T05:00:57.518Z,6.72
2017-03-07T05:01:37.971Z,6.68
2017-03-07T05:02:18.396Z,6.66
2017-03-07T05:02:58.755Z,6.73
2017-03-07T05:03:39.157Z,6.72
2017-03-07T05:04:19.577Z,6.71
2017-03-07T05:04:59.999Z,6.71
2017-03-07T05:05:40.402Z,6.72
2017-03-07T05:06:20.814Z,6.73
2017-03-07T05:07:01.199Z,6.68
2017-03-07T05:07:41.606Z,6.71
2017-03-07T05:08:21.999Z,6.65
2017-03-07T05:09:02.450Z,6.77
2017-03-07T05:09:42.890Z,6.72
2017-03-07T05:10:23.304Z,6.71
2017-03-07T05:11:03.702Z,6.68
2017-03-07T05:11:44.150Z,6.71
2017-03-07T05:12:24.528Z,6.66
2017-03-07T05:13:04.914Z,6.72
2017-03-07T05:13:45.318Z,6.77
2017-03-07T05:14:25.720Z,6.68
2017-03-07T05:15:06.175Z,6.77
2017-03-07T05:15:46.625Z,6.72
2017-03-07T05:16:27.040Z,6.71
2017-03-07T05:17:07.465Z,6.59
2017-03-07T05:17:47.868Z,6.68
2017-03-07T05:18:28.257Z,6.65
2017-03-07T05:19:08.689Z,6.69
2017-03-07T05:19:49.135Z,6.79
2017-03-07T05:20:29.540Z,6.77
2017-03-07T05:21:09.951Z,6.66
2017-03-07T05:21:50.348Z,6.73
2017-03-07T05:22:30.715Z,6.76
2017-03-07T05:23:11.142Z,6.65
2017-03-07T05:23:51.518Z,6.71
2017-03-07T05:24:31.891Z,6.68
2017-03-07T05:25:12.270Z,6.68
2017-03-07T05:25:52.703Z,6.69
2017-03-07T05:26:33.088Z,6.71
2017-03-07T05:27:13.491Z,6.58
2017-03-07T05:27:53.901Z,6.62
2017-03-07T05:28:34.317Z,6.56
2017-03-07T05:29:14.681Z,6.61
2017-03-07T05:29:55.090Z,6.63
2017-03-07T05:30:35.483Z,6.63
2017-03-07T05:31:15.860Z,6.63
2017-03-07T05:31:56.262Z,6.68
2017-03-07T05:32:36.668Z,6.63
2017-03-07T05:33:17.700Z,6.69
2017-03-07T05:33:58.102Z,6.56
2017-03-07T05:34:38.503Z,6.65
2017-03-07T05:35:18.897Z,6.65
2017-03-07T05:35:59.307Z,6.59
2017-03-07T05:36:39.700Z,6.56
2017-03-07T05:37:20.114Z,6.59
2017-03-07T05:38:00.530Z,6.59
2017-03-07T05:38:40.937Z,6.48
2017-03-07T05:39:21.333Z,6.48
2017-03-07T05:40:01.728Z,6.51
2017-03-07T05:40:42.141Z,6.56
2017-03-07T05:41:22.550Z,6.58
2017-03-07T05:42:02.941Z,6.54
2017-03-07T05:42:43.333Z,6.47
2017-03-07T05:43:23.706Z,6.56
2017-03-07T05:44:04.144Z,6.44
2017-03-07T05:44:44.538Z,6.51
2017-03-07T05:46:42.144Z,6.48
2017-03-07T05:47:22.593Z,6.46
2017-03-07T05:48:03.005Z,6.38
2017-03-07T05:48:43.429Z,6.35
2017-03-07T05:49:23.822Z,6.36
2017-03-07T05:50:04.240Z,6.38
2017-03-07T05:50:44.684Z,6.5
2017-03-07T05:51:25.106Z,6.44
2017-03-07T05:52:05.536Z,6.47
2017-03-07T05:52:45.942Z,6.43
2017-03-07T05:53:26.375Z,6.41
2017-03-07T05:54:06.866Z,6.4
2017-03-07T05:54:47.290Z,6.36
2017-03-07T05:56:34.691Z,6.35
2017-03-07T05:57:15.180Z,6.36
2017-03-07T05:57:55.625Z,6.38
2017-03-07T05:58:36.061Z,6.35
2017-03-07T05:59:16.489Z,6.36
2017-03-07T05:59:56.911Z,6.35
2017-03-07T06:00:37.327Z,6.36
2017-03-07T06:01:17.716Z,6.32
2017-03-07T06:01:58.130Z,6.33
2017-03-07T06:02:38.521Z,6.28
2017-03-07T06:03:18.923Z,6.29
2017-03-07T06:03:59.344Z,6.3
2017-03-07T06:04:39.755Z,6.09
2017-03-07T06:05:20.175Z,6.11
2017-03-07T06:06:00.593Z,6.18
2017-03-07T06:06:40.977Z,6.13
2017-03-07T06:07:21.381Z,6.14
2017-03-07T06:08:01.759Z,6.07
2017-03-07T06:08:42.147Z,6.09
2017-03-07T06:09:22.552Z,6.09
2017-03-07T06:10:02.931Z,6
2017-03-07T06:10:43.383Z,6.14
2017-03-07T06:11:23.773Z,6.14
2017-03-07T06:12:04.178Z,6.13
2017-03-07T06:12:44.700Z,6.07
2017-03-07T06:13:25.099Z,6.1
2017-03-07T06:14:05.497Z,6.13
2017-03-07T06:14:45.927Z,6.11
2017-03-07T06:15:26.371Z,6.13
2017-03-07T06:16:06.789Z,6.19
2017-03-07T06:16:47.191Z,6.14
2017-03-07T06:17:27.614Z,6.16
2017-03-07T06:18:08.037Z,6.16
2017-03-07T06:18:48.445Z,6.26
2017-03-07T06:19:28.859Z,6.32
2017-03-07T06:20:09.244Z,6.28
2017-03-07T06:20:49.663Z,6.25
2017-03-07T06:21:30.084Z,6.29
2017-03-07T06:22:10.490Z,6.26
2017-03-07T06:22:50.852Z,6.09
2017-03-07T06:23:31.250Z,6.22
2017-03-07T06:24:11.651Z,6.21
2017-03-07T06:24:52.048Z,6.26
2017-03-07T06:25:32.444Z,6.29
2017-03-07T06:26:12.851Z,6.19
2017-03-07T06:26:53.239Z,6.11
2017-03-07T06:27:33.634Z,6.1
2017-03-07T06:28:14.023Z,6.28
2017-03-07T06:28:54.427Z,6.25
2017-03-07T06:29:34.818Z,6.28
2017-03-07T06:30:15.205Z,6.3
2017-03-07T06:30:55.640Z,6.25
2017-03-07T06:31:36.001Z,6.22
2017-03-07T06:32:16.394Z,6.22
2017-03-07T06:32:56.810Z,6.21
2017-03-07T06:33:37.207Z,6.06
2017-03-07T06:34:17.608Z,6.22
2017-03-07T06:34:58.003Z,6.32
2017-03-07T06:35:38.407Z,6.29
2017-03-07T06:36:18.810Z,6.28
2017-03-07T06:36:59.240Z,6.26
2017-03-07T06:37:39.629Z,6.28
2017-03-07T06:38:20.050Z,6.25
2017-03-07T06:39:00.647Z,6.22
2017-03-07T06:39:41.047Z,6.28
2017-03-07T06:40:21.444Z,6.3
2017-03-07T06:41:01.869Z,6.33
2017-03-07T06:41:42.264Z,6.32
2017-03-07T06:42:22.710Z,6.18
2017-03-07T06:43:03.147Z,6.26
2017-03-07T06:43:43.551Z,6.25
2017-03-07T06:44:23.968Z,6.09
2017-03-07T06:45:04.395Z,6.09
2017-03-07T06:45:44.816Z,6.16
2017-03-07T06:46:25.242Z,6.1
2017-03-07T06:47:05.659Z,6.13
2017-03-07T06:47:46.047Z,6.07
2017-03-07T06:48:26.436Z,6.14
2017-03-07T06:49:06.866Z,6.06
2017-03-07T06:49:47.230Z,6.01
2017-03-07T06:50:27.640Z,5.96
2017-03-07T06:51:08.048Z,5.92
2017-03-07T06:51:48.444Z,5.98
2017-03-07T06:52:28.860Z,5.85
2017-03-07T06:53:09.243Z,5.86
2017-03-07T06:53:49.653Z,5.88
2017-03-07T06:54:30.214Z,5.82
2017-03-07T06:55:10.648Z,5.86
2017-03-07T06:55:51.051Z,5.83
2017-03-07T06:56:31.464Z,5.67
2017-03-07T06:57:11.869Z,5.57
2017-03-07T06:57:52.262Z,5.45
2017-03-07T06:58:32.656Z,5.45
2017-03-07T06:59:13.043Z,5.59
2017-03-07T06:59:53.458Z,5.6
2017-03-07T07:00:33.897Z,5.66
2017-03-07T07:01:14.301Z,5.6
2017-03-07T07:01:54.698Z,5.56
2017-03-07T07:02:35.078Z,5.46
2017-03-07T07:03:15.461Z,5.5
2017-03-07T07:03:55.879Z,5.57
2017-03-07T07:04:36.273Z,5.56
2017-03-07T07:05:16.687Z,5.67
2017-03-07T07:05:57.111Z,5.68
2017-03-07T07:06:37.549Z,5.81
2017-03-07T07:07:17.963Z,5.74
2017-03-07T07:07:58.366Z,5.82
2017-03-07T07:09:55.939Z,5.74
2017-03-07T07:10:36.325Z,5.7
2017-03-07T07:11:16.751Z,5.74
2017-03-07T07:11:57.190Z,5.89
2017-03-07T07:12:37.628Z,5.91
2017-03-07T07:13:18.023Z,5.95
2017-03-07T07:15:10.571Z,5.93
2017-03-07T07:15:51.866Z,5.95
2017-03-07T07:16:32.309Z,5.91
2017-03-07T07:17:12.725Z,5.89
2017-03-07T07:17:53.167Z,5.91
2017-03-07T07:18:33.574Z,6
2017-03-07T07:19:14.011Z,6.06
2017-03-07T07:19:54.443Z,5.95
2017-03-07T07:20:34.888Z,5.95
2017-03-07T07:21:15.325Z,5.98
2017-03-07T07:21:55.764Z,5.96
2017-03-07T07:22:36.208Z,5.96
2017-03-07T07:23:16.657Z,5.98
2017-03-07T07:23:57.105Z,6.01
2017-03-07T07:24:37.527Z,5.95
2017-03-07T07:25:17.951Z,5.96
2017-03-07T07:25:58.432Z,5.98
2017-03-07T07:26:38.863Z,6.01
2017-03-07T07:27:19.277Z,6.03
2017-03-07T07:27:59.716Z,6
2017-03-07T07:28:40.863Z,5.96
2017-03-07T07:29:21.256Z,5.93
2017-03-07T07:30:01.779Z,5.89
2017-03-07T07:30:42.179Z,5.85
2017-03-07T07:31:22.598Z,5.93
2017-03-07T07:32:02.966Z,5.92
2017-03-07T07:32:43.388Z,6
2017-03-07T07:33:23.797Z,5.92
2017-03-07T07:34:04.175Z,5.95
2017-03-07T07:34:44.598Z,5.98
2017-03-07T07:35:24.969Z,5.96
2017-03-07T07:36:05.368Z,5.98
2017-03-07T07:36:45.779Z,6.04
2017-03-07T07:37:26.179Z,5.96
2017-03-07T07:38:06.595Z,6.01
2017-03-07T07:38:47.000Z,6
2017-03-07T07:39:27.393Z,5.95
2017-03-07T07:40:07.863Z,6.01
2017-03-07T07:40:48.282Z,6.01
2017-03-07T07:41:28.683Z,6.1
2017-03-07T07:42:09.137Z,6.07
2017-03-07T07:42:49.581Z,6.1
2017-03-07T07:43:29.997Z,6.13
2017-03-07T07:44:10.407Z,6.18
2017-03-07T07:44:50.814Z,6.22
2017-03-07T07:45:31.194Z,6.13
2017-03-07T07:46:11.579Z,6.3
2017-03-07T07:46:51.985Z,6.35
2017-03-07T07:47:32.384Z,6.3
2017-03-07T07:48:12.797Z,6.36
2017-03-07T07:48:53.221Z,6.38
2017-03-07T07:49:33.684Z,6.44
2017-03-07T07:50:14.068Z,6.41
2017-03-07T07:50:54.535Z,6.41
2017-03-07T07:51:35.519Z,6.48
2017-03-07T07:52:15.937Z,6.51
2017-03-07T07:52:56.337Z,6.58
2017-03-07T07:53:36.807Z,6.43
2017-03-07T07:54:17.168Z,6.43
2017-03-07T07:54:57.552Z,6.53
2017-03-07T07:55:37.958Z,6.5
2017-03-07T07:56:18.410Z,6.68
2017-03-07T07:56:58.807Z,6.59
2017-03-07T07:57:39.221Z,6.69
2017-03-07T07:58:19.622Z,6.79
2017-03-07T07:59:00.016Z,6.91
2017-03-07T07:59:40.447Z,7.04
2017-03-07T08:00:20.840Z,7.07
2017-03-07T08:01:01.242Z,7.13
2017-03-07T08:01:41.668Z,6.97
2017-03-07T08:03:34.166Z,7.15
2017-03-07T08:04:14.596Z,7.29
2017-03-07T08:04:55.022Z,7.22
2017-03-07T08:05:35.439Z,7.37
2017-03-07T08:06:15.856Z,7.38
2017-03-07T08:06:56.293Z,7.42
2017-03-07T08:07:36.709Z,7.5
2017-03-07T08:08:17.094Z,7.45
2017-03-07T08:08:57.525Z,7.62
2017-03-07T08:09:37.937Z,7.62
2017-03-07T08:10:18.349Z,7.6
2017-03-07T08:10:58.744Z,7.66
2017-03-07T08:11:39.112Z,7.6
2017-03-07T08:12:19.515Z,7.62
2017-03-07T08:12:59.906Z,7.53
2017-03-07T08:13:40.298Z,7.59
2017-03-07T08:14:20.698Z,7.44
2017-03-07T08:15:01.121Z,7.44
2017-03-07T08:15:41.524Z,7.42
2017-03-07T08:16:21.925Z,7.4
2017-03-07T08:17:02.373Z,7.22
2017-03-07T08:17:42.754Z,7.24
2017-03-07T08:18:23.171Z,7.05
2017-03-07T08:19:03.675Z,7.12
2017-03-07T08:19:44.075Z,7.29
2017-03-07T08:20:24.489Z,7.38
2017-03-07T08:21:04.897Z,7.47
2017-03-07T08:21:45.360Z,7.49
2017-03-07T08:22:25.765Z,7.62
2017-03-07T08:23:06.151Z,7.58
2017-03-07T08:23:46.571Z,7.41
2017-03-07T08:24:26.992Z,7.62
2017-03-07T08:25:07.357Z,7.6
2017-03-07T08:25:47.757Z,7.6
2017-03-07T08:26:28.327Z,7.63
2017-03-07T08:27:08.622Z,7.42
2017-03-07T08:27:49.013Z,7.44
2017-03-07T08:28:29.406Z,7.42
2017-03-07T08:29:09.792Z,7.58
2017-03-07T08:29:50.192Z,7.59
2017-03-07T08:30:30.604Z,7.69
2017-03-07T08:31:11.001Z,7.79
2017-03-07T08:31:51.388Z,7.94
2017-03-07T08:32:31.784Z,7.9
2017-03-07T08:33:12.189Z,7.82
2017-03-07T08:33:52.587Z,7.89
2017-03-07T08:34:32.997Z,7.87
2017-03-07T08:35:13.338Z,7.9
2017-03-07T08:35:53.748Z,7.77
2017-03-07T08:36:34.152Z,7.79
2017-03-07T08:37:14.528Z,7.77
2017-03-07T08:37:54.980Z,7.81
2017-03-07T08:38:35.378Z,7.92
2017-03-07T08:39:15.791Z,7.94
2017-03-07T08:39:56.171Z,8
2017-03-07T08:40:36.621Z,7.9
2017-03-07T08:41:17.025Z,7.94
2017-03-07T08:41:57.472Z,8.08
2017-03-07T08:42:37.893Z,7.96
2017-03-07T08:43:18.266Z,7.89
2017-03-07T08:43:58.641Z,7.79
2017-03-07T08:44:39.107Z,7.6
2017-03-07T08:45:19.668Z,7.63
2017-03-07T08:46:00.283Z,7.58
2017-03-07T08:46:40.737Z,7.47
2017-03-07T08:47:21.097Z,7.38
2017-03-07T08:48:01.512Z,7.35
2017-03-07T08:48:41.946Z,7.45
2017-03-07T08:49:22.672Z,7.49
2017-03-07T08:50:03.168Z,7.59
2017-03-07T08:50:43.588Z,7.59
2017-03-07T08:51:24.051Z,7.59
2017-03-07T08:52:04.561Z,7.63
2017-03-07T08:52:44.980Z,7.44
2017-03-07T08:53:25.402Z,7.15
2017-03-07T08:54:05.865Z,7.34
2017-03-07T08:54:46.364Z,7.41
2017-03-07T08:55:26.790Z,7.6
2017-03-07T08:56:07.420Z,7.55
2017-03-07T08:56:47.803Z,7.63
2017-03-07T08:57:29.009Z,7.62
2017-03-07T08:58:09.400Z,7.67
2017-03-07T08:58:49.799Z,7.6
2017-03-07T08:59:30.207Z,7.77
2017-03-07T09:00:10.705Z,7.9
2017-03-07T09:00:51.104Z,7.94
2017-03-07T09:03:03.832Z,8.35
2017-03-07T09:03:44.271Z,8.44
2017-03-07T09:04:24.691Z,8.37
2017-03-07T09:05:05.209Z,8.3
2017-03-07T09:05:45.688Z,8.07
2017-03-07T09:06:26.128Z,8.25
2017-03-07T09:07:06.663Z,8.35
2017-03-07T09:07:47.045Z,8.37
2017-03-07T09:08:27.735Z,8.55
2017-03-07T09:09:08.141Z,8.51
2017-03-07T09:09:48.599Z,8.53
2017-03-07T09:10:29.009Z,8.21
2017-03-07T09:11:09.413Z,8.07
2017-03-07T09:11:49.818Z,8.26
2017-03-07T09:12:30.200Z,8.33
2017-03-07T09:13:10.675Z,8.32
2017-03-07T09:13:51.100Z,8.29
2017-03-07T09:14:31.497Z,8.35
2017-03-07T09:15:11.911Z,8.47
2017-03-07T09:15:52.396Z,8.39
2017-03-07T09:16:32.794Z,8.33
2017-03-07T09:17:13.197Z,8.39
2017-03-07T09:17:53.624Z,8.29
2017-03-07T09:18:34.058Z,7.94
2017-03-07T09:19:14.457Z,7.81
2017-03-07T09:19:54.894Z,7.74
2017-03-07T09:20:35.308Z,7.63
2017-03-07T09:21:15.782Z,7.53